sensor_id;sensor_type;location;lat;lon;timestamp;P1;durP1;ratioP1;P2;durP2;ratioP2
75718;SDS011;64340;48.534;-3.036;2023-02-03T00:01:11;3.53;;;1.10;;
75718;SDS011;64340;48.534;-3.036;2023-02-03T00:03:37;3.42;;;1.35;;
75718;SDS011;64340;48.534;-3.036;2023-02-03T00:06:03;2.90;;;1.00;;
75718;SDS011;64340;48.534;-3.036;2023-02-03T00:08:29;3.17;;;1.15;;
75718;SDS011;64340;48.534;-3.036;2023-02-03T00:10:56;5.80;;;1.27;;
75718;SDS011;64340;48.534;-3.036;2023-02-03T00:13:25;2.40;;;1.08;;
75718;SDS011;64340;48.534;-3.036;2023-02-03T00:15:51;4.75;;;1.27;;
75718;SDS011;64340;48.534;-3.036;2023-02-03T00:18:17;3.17;;;1.40;;
75718;SDS011;64340;48.534;-3.036;2023-02-03T00:20:43;3.40;;;1.15;;
75718;SDS011;64340;48.534;-3.036;2023-02-03T00:23:09;3.33;;;1.02;;
75718;SDS011;64340;48.534;-3.036;2023-02-03T00:25:36;4.03;;;1.30;;
75718;SDS011;64340;48.534;-3.036;2023-02-03T00:28:02;2.80;;;1.10;;
75718;SDS011;64340;48.534;-3.036;2023-02-03T00:30:29;2.75;;;0.95;;
75718;SDS011;64340;48.534;-3.036;2023-02-03T00:32:55;3.25;;;1.23;;
75718;SDS011;64340;48.534;-3.036;2023-02-03T00:35:21;4.20;;;1.27;;
75718;SDS011;64340;48.534;-3.036;2023-02-03T00:37:50;4.82;;;1.42;;
75718;SDS011;64340;48.534;-3.036;2023-02-03T00:40:17;3.28;;;1.20;;
75718;SDS011;64340;48.534;-3.036;2023-02-03T00:42:43;5.25;;;1.30;;
75718;SDS011;64340;48.534;-3.036;2023-02-03T00:45:09;3.40;;;1.25;;
75718;SDS011;64340;48.534;-3.036;2023-02-03T00:47:35;3.30;;;1.10;;
75718;SDS011;64340;48.534;-3.036;2023-02-03T00:50:01;4.22;;;1.50;;
75718;SDS011;64340;48.534;-3.036;2023-02-03T00:52:27;4.32;;;1.20;;
75718;SDS011;64340;48.534;-3.036;2023-02-03T00:54:53;3.45;;;1.40;;
75718;SDS011;64340;48.534;-3.036;2023-02-03T00:57:18;2.40;;;1.00;;
75718;SDS011;64340;48.534;-3.036;2023-02-03T00:59:44;4.15;;;1.20;;
75718;SDS011;64340;48.534;-3.036;2023-02-03T01:02:10;4.38;;;1.30;;
75718;SDS011;64340;48.534;-3.036;2023-02-03T01:04:35;5.28;;;1.15;;
75718;SDS011;64340;48.534;-3.036;2023-02-03T01:07:01;4.55;;;1.08;;
75718;SDS011;64340;48.534;-3.036;2023-02-03T01:09:27;2.28;;;0.95;;
75718;SDS011;64340;48.534;-3.036;2023-02-03T01:11:53;3.63;;;1.13;;
75718;SDS011;64340;48.534;-3.036;2023-02-03T01:14:19;3.17;;;1.10;;
75718;SDS011;64340;48.534;-3.036;2023-02-03T01:16:45;3.50;;;1.05;;
75718;SDS011;64340;48.534;-3.036;2023-02-03T01:19:10;3.55;;;1.02;;
75718;SDS011;64340;48.534;-3.036;2023-02-03T01:21:36;4.15;;;0.90;;
75718;SDS011;64340;48.534;-3.036;2023-02-03T01:24:02;2.55;;;1.02;;
75718;SDS011;64340;48.534;-3.036;2023-02-03T01:26:28;2.50;;;1.08;;
75718;SDS011;64340;48.534;-3.036;2023-02-03T01:28:55;2.47;;;1.00;;
75718;SDS011;64340;48.534;-3.036;2023-02-03T01:31:23;2.33;;;0.80;;
75718;SDS011;64340;48.534;-3.036;2023-02-03T01:33:52;2.58;;;0.90;;
75718;SDS011;64340;48.534;-3.036;2023-02-03T01:36:19;2.88;;;1.15;;
75718;SDS011;64340;48.534;-3.036;2023-02-03T01:38:46;4.50;;;0.95;;
75718;SDS011;64340;48.534;-3.036;2023-02-03T01:41:13;2.83;;;1.02;;
75718;SDS011;64340;48.534;-3.036;2023-02-03T01:43:45;3.58;;;1.10;;
75718;SDS011;64340;48.534;-3.036;2023-02-03T01:49:03;3.03;;;0.80;;
75718;SDS011;64340;48.534;-3.036;2023-02-03T01:51:37;3.17;;;1.00;;
75718;SDS011;64340;48.534;-3.036;2023-02-03T01:56:35;2.13;;;0.88;;
75718;SDS011;64340;48.534;-3.036;2023-02-03T01:59:05;2.30;;;0.73;;
75718;SDS011;64340;48.534;-3.036;2023-02-03T02:01:31;1.60;;;0.85;;
75718;SDS011;64340;48.534;-3.036;2023-02-03T02:03:58;4.03;;;0.95;;
75718;SDS011;64340;48.534;-3.036;2023-02-03T02:06:26;1.73;;;0.73;;
75718;SDS011;64340;48.534;-3.036;2023-02-03T02:08:53;2.70;;;1.20;;
75718;SDS011;64340;48.534;-3.036;2023-02-03T02:11:22;3.28;;;0.75;;
75718;SDS011;64340;48.534;-3.036;2023-02-03T02:13:48;4.10;;;1.15;;
75718;SDS011;64340;48.534;-3.036;2023-02-03T02:22:21;2.75;;;0.88;;
75718;SDS011;64340;48.534;-3.036;2023-02-03T02:38:57;3.65;;;0.93;;
75718;SDS011;64340;48.534;-3.036;2023-02-03T02:41:35;2.95;;;0.95;;
75718;SDS011;64340;48.534;-3.036;2023-02-03T02:44:16;2.45;;;0.80;;
75718;SDS011;64340;48.534;-3.036;2023-02-03T02:46:50;2.13;;;0.77;;
75718;SDS011;64340;48.534;-3.036;2023-02-03T02:49:23;2.60;;;0.90;;
75718;SDS011;64340;48.534;-3.036;2023-02-03T02:51:56;3.30;;;0.70;;
75718;SDS011;64340;48.534;-3.036;2023-02-03T02:54:27;3.03;;;0.75;;
75718;SDS011;64340;48.534;-3.036;2023-02-03T02:56:55;2.13;;;1.05;;
75718;SDS011;64340;48.534;-3.036;2023-02-03T02:59:27;2.28;;;0.80;;
75718;SDS011;64340;48.534;-3.036;2023-02-03T03:01:53;3.55;;;0.80;;
75718;SDS011;64340;48.534;-3.036;2023-02-03T03:04:20;1.75;;;1.00;;
75718;SDS011;64340;48.534;-3.036;2023-02-03T03:07:09;2.97;;;0.70;;
75718;SDS011;64340;48.534;-3.036;2023-02-03T03:09:47;2.55;;;0.80;;
75718;SDS011;64340;48.534;-3.036;2023-02-03T03:14:47;2.85;;;1.20;;
75718;SDS011;64340;48.534;-3.036;2023-02-03T03:17:17;1.88;;;0.80;;
75718;SDS011;64340;48.534;-3.036;2023-02-03T03:19:49;2.47;;;0.82;;
75718;SDS011;64340;48.534;-3.036;2023-02-03T03:22:19;2.28;;;0.90;;
75718;SDS011;64340;48.534;-3.036;2023-02-03T03:24:51;1.50;;;0.60;;
75718;SDS011;64340;48.534;-3.036;2023-02-03T03:27:23;2.47;;;0.88;;
75718;SDS011;64340;48.534;-3.036;2023-02-03T03:29:55;1.83;;;0.93;;
75718;SDS011;64340;48.534;-3.036;2023-02-03T03:32:25;3.80;;;1.20;;
75718;SDS011;64340;48.534;-3.036;2023-02-03T03:34:52;1.85;;;0.85;;
75718;SDS011;64340;48.534;-3.036;2023-02-03T03:39:50;4.25;;;1.00;;
75718;SDS011;64340;48.534;-3.036;2023-02-03T03:45:31;1.90;;;0.90;;
75718;SDS011;64340;48.534;-3.036;2023-02-03T03:48:05;4.40;;;1.23;;
75718;SDS011;64340;48.534;-3.036;2023-02-03T03:50:46;2.83;;;1.25;;
75718;SDS011;64340;48.534;-3.036;2023-02-03T03:53:16;2.53;;;0.95;;
75718;SDS011;64340;48.534;-3.036;2023-02-03T03:55:45;3.67;;;1.10;;
75718;SDS011;64340;48.534;-3.036;2023-02-03T03:58:18;2.60;;;1.00;;
75718;SDS011;64340;48.534;-3.036;2023-02-03T04:03:20;2.50;;;0.90;;
75718;SDS011;64340;48.534;-3.036;2023-02-03T04:05:49;1.83;;;0.93;;
75718;SDS011;64340;48.534;-3.036;2023-02-03T04:08:15;3.13;;;1.15;;
75718;SDS011;64340;48.534;-3.036;2023-02-03T04:10:41;3.45;;;1.00;;
75718;SDS011;64340;48.534;-3.036;2023-02-03T04:13:08;2.50;;;1.10;;
75718;SDS011;64340;48.534;-3.036;2023-02-03T04:15:35;2.08;;;0.93;;
75718;SDS011;64340;48.534;-3.036;2023-02-03T04:18:02;3.40;;;1.00;;
75718;SDS011;64340;48.534;-3.036;2023-02-03T04:20:29;4.80;;;1.20;;
75718;SDS011;64340;48.534;-3.036;2023-02-03T04:22:56;4.20;;;1.05;;
75718;SDS011;64340;48.534;-3.036;2023-02-03T04:25:22;2.78;;;0.90;;
75718;SDS011;64340;48.534;-3.036;2023-02-03T04:27:49;2.90;;;1.00;;
75718;SDS011;64340;48.534;-3.036;2023-02-03T04:30:14;4.13;;;1.23;;
75718;SDS011;64340;48.534;-3.036;2023-02-03T04:32:42;3.35;;;1.10;;
75718;SDS011;64340;48.534;-3.036;2023-02-03T04:35:09;3.53;;;1.10;;
75718;SDS011;64340;48.534;-3.036;2023-02-03T04:37:35;2.45;;;1.02;;
75718;SDS011;64340;48.534;-3.036;2023-02-03T04:40:01;3.45;;;1.20;;
75718;SDS011;64340;48.534;-3.036;2023-02-03T04:42:27;3.13;;;1.20;;
75718;SDS011;64340;48.534;-3.036;2023-02-03T04:44:53;2.20;;;0.93;;
75718;SDS011;64340;48.534;-3.036;2023-02-03T04:47:19;3.55;;;0.95;;
75718;SDS011;64340;48.534;-3.036;2023-02-03T04:49:45;2.20;;;1.02;;
75718;SDS011;64340;48.534;-3.036;2023-02-03T04:52:11;3.10;;;1.00;;
75718;SDS011;64340;48.534;-3.036;2023-02-03T04:54:37;2.00;;;1.08;;
75718;SDS011;64340;48.534;-3.036;2023-02-03T04:57:04;3.45;;;1.00;;
75718;SDS011;64340;48.534;-3.036;2023-02-03T04:59:30;2.05;;;0.90;;
75718;SDS011;64340;48.534;-3.036;2023-02-03T05:01:56;2.92;;;1.20;;
75718;SDS011;64340;48.534;-3.036;2023-02-03T05:04:22;4.15;;;1.27;;
75718;SDS011;64340;48.534;-3.036;2023-02-03T05:06:48;3.10;;;1.35;;
75718;SDS011;64340;48.534;-3.036;2023-02-03T05:09:13;2.90;;;1.05;;
75718;SDS011;64340;48.534;-3.036;2023-02-03T05:11:40;4.80;;;1.20;;
75718;SDS011;64340;48.534;-3.036;2023-02-03T05:14:05;7.43;;;1.00;;
75718;SDS011;64340;48.534;-3.036;2023-02-03T05:16:32;2.63;;;1.00;;
75718;SDS011;64340;48.534;-3.036;2023-02-03T05:18:57;2.50;;;0.95;;
75718;SDS011;64340;48.534;-3.036;2023-02-03T05:21:23;3.30;;;1.20;;
75718;SDS011;64340;48.534;-3.036;2023-02-03T05:23:49;4.00;;;0.93;;
75718;SDS011;64340;48.534;-3.036;2023-02-03T05:26:15;3.40;;;1.00;;
75718;SDS011;64340;48.534;-3.036;2023-02-03T05:28:41;3.40;;;1.15;;
75718;SDS011;64340;48.534;-3.036;2023-02-03T05:31:06;2.85;;;1.17;;
75718;SDS011;64340;48.534;-3.036;2023-02-03T05:33:32;4.22;;;0.90;;
75718;SDS011;64340;48.534;-3.036;2023-02-03T05:35:58;1.80;;;1.02;;
75718;SDS011;64340;48.534;-3.036;2023-02-03T05:38:24;4.30;;;1.13;;
75718;SDS011;64340;48.534;-3.036;2023-02-03T05:40:50;3.20;;;1.02;;
75718;SDS011;64340;48.534;-3.036;2023-02-03T05:43:35;2.53;;;1.30;;
75718;SDS011;64340;48.534;-3.036;2023-02-03T05:46:01;7.45;;;1.88;;
75718;SDS011;64340;48.534;-3.036;2023-02-03T05:48:28;5.47;;;1.83;;
75718;SDS011;64340;48.534;-3.036;2023-02-03T05:50:54;11.15;;;2.33;;
75718;SDS011;64340;48.534;-3.036;2023-02-03T05:53:20;13.77;;;3.40;;
75718;SDS011;64340;48.534;-3.036;2023-02-03T05:55:46;12.00;;;3.00;;
75718;SDS011;64340;48.534;-3.036;2023-02-03T05:58:11;10.13;;;2.50;;
75718;SDS011;64340;48.534;-3.036;2023-02-03T06:00:37;10.05;;;2.92;;
75718;SDS011;64340;48.534;-3.036;2023-02-03T06:03:03;10.13;;;2.85;;
75718;SDS011;64340;48.534;-3.036;2023-02-03T06:05:30;8.52;;;2.17;;
75718;SDS011;64340;48.534;-3.036;2023-02-03T06:07:57;7.10;;;1.95;;
75718;SDS011;64340;48.534;-3.036;2023-02-03T06:10:23;7.32;;;2.15;;
75718;SDS011;64340;48.534;-3.036;2023-02-03T06:12:49;7.93;;;2.60;;
75718;SDS011;64340;48.534;-3.036;2023-02-03T06:15:16;8.75;;;2.40;;
75718;SDS011;64340;48.534;-3.036;2023-02-03T06:17:45;7.10;;;2.10;;
75718;SDS011;64340;48.534;-3.036;2023-02-03T06:20:14;8.52;;;2.55;;
75718;SDS011;64340;48.534;-3.036;2023-02-03T06:22:40;8.85;;;1.88;;
75718;SDS011;64340;48.534;-3.036;2023-02-03T06:25:06;9.57;;;2.40;;
75718;SDS011;64340;48.534;-3.036;2023-02-03T06:27:32;10.05;;;2.50;;
75718;SDS011;64340;48.534;-3.036;2023-02-03T06:29:59;7.82;;;2.58;;
75718;SDS011;64340;48.534;-3.036;2023-02-03T06:32:24;10.98;;;2.92;;
75718;SDS011;64340;48.534;-3.036;2023-02-03T06:34:50;9.85;;;2.53;;
75718;SDS011;64340;48.534;-3.036;2023-02-03T06:37:16;8.77;;;2.53;;
75718;SDS011;64340;48.534;-3.036;2023-02-03T06:39:42;13.00;;;2.88;;
75718;SDS011;64340;48.534;-3.036;2023-02-03T06:42:07;7.72;;;2.30;;
75718;SDS011;64340;48.534;-3.036;2023-02-03T06:44:33;9.60;;;2.03;;
75718;SDS011;64340;48.534;-3.036;2023-02-03T06:46:59;6.80;;;1.83;;
75718;SDS011;64340;48.534;-3.036;2023-02-03T06:49:27;6.85;;;1.95;;
75718;SDS011;64340;48.534;-3.036;2023-02-03T06:51:53;10.25;;;1.73;;
75718;SDS011;64340;48.534;-3.036;2023-02-03T06:54:19;3.83;;;1.77;;
75718;SDS011;64340;48.534;-3.036;2023-02-03T06:56:45;5.20;;;1.60;;
75718;SDS011;64340;48.534;-3.036;2023-02-03T06:59:11;5.03;;;1.90;;
75718;SDS011;64340;48.534;-3.036;2023-02-03T07:01:37;6.00;;;1.95;;
75718;SDS011;64340;48.534;-3.036;2023-02-03T07:04:03;5.80;;;1.50;;
75718;SDS011;64340;48.534;-3.036;2023-02-03T07:06:29;4.30;;;1.75;;
75718;SDS011;64340;48.534;-3.036;2023-02-03T07:08:58;6.63;;;1.73;;
75718;SDS011;64340;48.534;-3.036;2023-02-03T07:11:28;6.47;;;1.70;;
75718;SDS011;64340;48.534;-3.036;2023-02-03T07:13:55;4.43;;;1.50;;
75718;SDS011;64340;48.534;-3.036;2023-02-03T07:16:20;4.32;;;1.50;;
75718;SDS011;64340;48.534;-3.036;2023-02-03T07:18:46;4.00;;;1.20;;
75718;SDS011;64340;48.534;-3.036;2023-02-03T07:21:12;3.75;;;1.35;;
75718;SDS011;64340;48.534;-3.036;2023-02-03T07:23:39;3.28;;;1.50;;
75718;SDS011;64340;48.534;-3.036;2023-02-03T07:26:05;4.47;;;1.25;;
75718;SDS011;64340;48.534;-3.036;2023-02-03T07:28:34;3.53;;;1.50;;
75718;SDS011;64340;48.534;-3.036;2023-02-03T07:31:00;3.42;;;1.42;;
75718;SDS011;64340;48.534;-3.036;2023-02-03T07:33:28;4.05;;;1.20;;
75718;SDS011;64340;48.534;-3.036;2023-02-03T07:35:56;3.50;;;1.00;;
75718;SDS011;64340;48.534;-3.036;2023-02-03T07:38:23;3.15;;;1.33;;
75718;SDS011;64340;48.534;-3.036;2023-02-03T07:40:50;2.47;;;0.90;;
75718;SDS011;64340;48.534;-3.036;2023-02-03T07:43:17;3.85;;;1.17;;
75718;SDS011;64340;48.534;-3.036;2023-02-03T07:45:43;3.00;;;1.23;;
75718;SDS011;64340;48.534;-3.036;2023-02-03T07:48:09;3.13;;;0.95;;
75718;SDS011;64340;48.534;-3.036;2023-02-03T07:50:35;4.25;;;1.02;;
75718;SDS011;64340;48.534;-3.036;2023-02-03T07:53:01;2.60;;;1.20;;
75718;SDS011;64340;48.534;-3.036;2023-02-03T07:55:27;1.77;;;1.00;;
75718;SDS011;64340;48.534;-3.036;2023-02-03T07:57:54;2.20;;;1.00;;
75718;SDS011;64340;48.534;-3.036;2023-02-03T08:00:21;3.72;;;0.98;;
75718;SDS011;64340;48.534;-3.036;2023-02-03T08:02:47;1.58;;;0.98;;
75718;SDS011;64340;48.534;-3.036;2023-02-03T08:05:13;2.20;;;0.93;;
75718;SDS011;64340;48.534;-3.036;2023-02-03T08:07:39;2.78;;;1.10;;
75718;SDS011;64340;48.534;-3.036;2023-02-03T08:10:06;2.50;;;1.05;;
75718;SDS011;64340;48.534;-3.036;2023-02-03T08:12:33;1.83;;;0.90;;
75718;SDS011;64340;48.534;-3.036;2023-02-03T08:14:59;5.07;;;1.20;;
75718;SDS011;64340;48.534;-3.036;2023-02-03T08:17:25;3.03;;;0.93;;
75718;SDS011;64340;48.534;-3.036;2023-02-03T08:19:51;1.85;;;1.00;;
75718;SDS011;64340;48.534;-3.036;2023-02-03T08:22:16;2.67;;;1.27;;
75718;SDS011;64340;48.534;-3.036;2023-02-03T08:24:45;2.42;;;1.10;;
75718;SDS011;64340;48.534;-3.036;2023-02-03T08:27:12;1.83;;;1.00;;
75718;SDS011;64340;48.534;-3.036;2023-02-03T08:29:39;3.05;;;1.30;;
75718;SDS011;64340;48.534;-3.036;2023-02-03T08:32:08;2.97;;;1.10;;
75718;SDS011;64340;48.534;-3.036;2023-02-03T08:34:35;2.08;;;0.80;;
75718;SDS011;64340;48.534;-3.036;2023-02-03T08:37:01;1.55;;;0.90;;
75718;SDS011;64340;48.534;-3.036;2023-02-03T08:39:27;3.03;;;1.20;;
75718;SDS011;64340;48.534;-3.036;2023-02-03T08:41:52;2.55;;;1.25;;
75718;SDS011;64340;48.534;-3.036;2023-02-03T08:44:18;2.78;;;1.10;;
75718;SDS011;64340;48.534;-3.036;2023-02-03T08:46:47;2.60;;;1.20;;
75718;SDS011;64340;48.534;-3.036;2023-02-03T08:49:14;2.17;;;1.00;;
75718;SDS011;64340;48.534;-3.036;2023-02-03T08:51:39;2.35;;;1.20;;
75718;SDS011;64340;48.534;-3.036;2023-02-03T08:54:05;2.20;;;0.98;;
75718;SDS011;64340;48.534;-3.036;2023-02-03T08:56:31;2.40;;;1.10;;
75718;SDS011;64340;48.534;-3.036;2023-02-03T08:58:58;2.25;;;0.98;;
75718;SDS011;64340;48.534;-3.036;2023-02-03T09:01:24;2.83;;;1.10;;
75718;SDS011;64340;48.534;-3.036;2023-02-03T09:03:50;1.70;;;0.90;;
75718;SDS011;64340;48.534;-3.036;2023-02-03T09:06:17;2.72;;;1.15;;
75718;SDS011;64340;48.534;-3.036;2023-02-03T09:08:43;2.45;;;0.98;;
75718;SDS011;64340;48.534;-3.036;2023-02-03T09:11:11;2.88;;;1.13;;
75718;SDS011;64340;48.534;-3.036;2023-02-03T09:13:38;2.75;;;1.30;;
75718;SDS011;64340;48.534;-3.036;2023-02-03T09:16:06;2.92;;;1.02;;
75718;SDS011;64340;48.534;-3.036;2023-02-03T09:18:32;5.53;;;3.13;;
75718;SDS011;64340;48.534;-3.036;2023-02-03T09:21:01;6.50;;;2.17;;
75718;SDS011;64340;48.534;-3.036;2023-02-03T09:23:32;2.80;;;1.23;;
75718;SDS011;64340;48.534;-3.036;2023-02-03T09:26:03;6.53;;;1.23;;
75718;SDS011;64340;48.534;-3.036;2023-02-03T09:28:33;1.65;;;0.80;;
75718;SDS011;64340;48.534;-3.036;2023-02-03T09:31:03;1.63;;;0.80;;
75718;SDS011;64340;48.534;-3.036;2023-02-03T09:33:31;2.58;;;1.00;;
75718;SDS011;64340;48.534;-3.036;2023-02-03T09:35:58;2.50;;;0.90;;
75718;SDS011;64340;48.534;-3.036;2023-02-03T09:38:25;3.03;;;0.80;;
75718;SDS011;64340;48.534;-3.036;2023-02-03T09:40:55;2.28;;;0.80;;
75718;SDS011;64340;48.534;-3.036;2023-02-03T09:43:34;3.15;;;0.80;;
75718;SDS011;64340;48.534;-3.036;2023-02-03T09:46:28;5.97;;;1.00;;
75718;SDS011;64340;48.534;-3.036;2023-02-03T09:48:59;4.78;;;0.93;;
75718;SDS011;64340;48.534;-3.036;2023-02-03T09:51:31;1.88;;;0.63;;
75718;SDS011;64340;48.534;-3.036;2023-02-03T09:54:06;1.92;;;0.70;;
75718;SDS011;64340;48.534;-3.036;2023-02-03T09:56:54;3.38;;;0.80;;
75718;SDS011;64340;48.534;-3.036;2023-02-03T09:59:20;1.52;;;0.63;;
75718;SDS011;64340;48.534;-3.036;2023-02-03T10:04:36;1.60;;;0.65;;
75718;SDS011;64340;48.534;-3.036;2023-02-03T10:07:09;1.73;;;0.70;;
75718;SDS011;64340;48.534;-3.036;2023-02-03T10:13:03;1.90;;;0.80;;
75718;SDS011;64340;48.534;-3.036;2023-02-03T10:17:49;2.83;;;0.90;;
75718;SDS011;64340;48.534;-3.036;2023-02-03T10:20:25;1.42;;;0.60;;
75718;SDS011;64340;48.534;-3.036;2023-02-03T10:23:15;3.45;;;0.60;;
75718;SDS011;64340;48.534;-3.036;2023-02-03T10:25:52;1.27;;;0.70;;
75718;SDS011;64340;48.534;-3.036;2023-02-03T10:28:21;2.55;;;0.70;;
75718;SDS011;64340;48.534;-3.036;2023-02-03T10:30:51;1.80;;;0.50;;
75718;SDS011;64340;48.534;-3.036;2023-02-03T10:33:20;1.83;;;0.60;;
75718;SDS011;64340;48.534;-3.036;2023-02-03T10:35:50;2.47;;;0.60;;
75718;SDS011;64340;48.534;-3.036;2023-02-03T10:38:34;3.28;;;0.60;;
75718;SDS011;64340;48.534;-3.036;2023-02-03T10:41:04;3.45;;;0.52;;
75718;SDS011;64340;48.534;-3.036;2023-02-03T10:43:30;1.25;;;0.60;;
75718;SDS011;64340;48.534;-3.036;2023-02-03T10:46:31;3.78;;;0.73;;
75718;SDS011;64340;48.534;-3.036;2023-02-03T10:49:01;1.73;;;0.80;;
75718;SDS011;64340;48.534;-3.036;2023-02-03T10:51:29;3.50;;;1.23;;
75718;SDS011;64340;48.534;-3.036;2023-02-03T10:54:04;2.42;;;1.02;;
75718;SDS011;64340;48.534;-3.036;2023-02-03T10:56:50;2.20;;;0.50;;
75718;SDS011;64340;48.534;-3.036;2023-02-03T10:59:25;2.55;;;0.57;;
75718;SDS011;64340;48.534;-3.036;2023-02-03T11:01:54;1.42;;;0.60;;
75718;SDS011;64340;48.534;-3.036;2023-02-03T11:04:23;2.38;;;0.50;;
75718;SDS011;64340;48.534;-3.036;2023-02-03T11:06:57;1.63;;;0.40;;
75718;SDS011;64340;48.534;-3.036;2023-02-03T11:09:34;3.08;;;0.55;;
75718;SDS011;64340;48.534;-3.036;2023-02-03T11:14:40;4.07;;;0.70;;
75718;SDS011;64340;48.534;-3.036;2023-02-03T11:17:20;0.73;;;0.38;;
75718;SDS011;64340;48.534;-3.036;2023-02-03T11:19:49;2.05;;;0.40;;
75718;SDS011;64340;48.534;-3.036;2023-02-03T11:24:56;1.63;;;0.47;;
75718;SDS011;64340;48.534;-3.036;2023-02-03T11:27:23;1.85;;;0.50;;
75718;SDS011;64340;48.534;-3.036;2023-02-03T11:30:06;2.05;;;0.70;;
75718;SDS011;64340;48.534;-3.036;2023-02-03T11:32:41;0.95;;;0.32;;
75718;SDS011;64340;48.534;-3.036;2023-02-03T11:35:21;1.60;;;0.50;;
75718;SDS011;64340;48.534;-3.036;2023-02-03T11:37:55;1.48;;;0.45;;
75718;SDS011;64340;48.534;-3.036;2023-02-03T11:50:41;3.30;;;0.57;;
75718;SDS011;64340;48.534;-3.036;2023-02-03T11:56:07;2.33;;;0.35;;
75718;SDS011;64340;48.534;-3.036;2023-02-03T12:10:20;1.67;;;0.40;;
75718;SDS011;64340;48.534;-3.036;2023-02-03T12:15:53;1.80;;;0.38;;
75718;SDS011;64340;48.534;-3.036;2023-02-03T12:18:44;1.05;;;0.50;;
75718;SDS011;64340;48.534;-3.036;2023-02-03T12:21:40;0.93;;;0.30;;
75718;SDS011;64340;48.534;-3.036;2023-02-03T12:29:53;0.80;;;0.30;;
75718;SDS011;64340;48.534;-3.036;2023-02-03T12:32:37;0.80;;;0.30;;
75718;SDS011;64340;48.534;-3.036;2023-02-03T12:37:58;1.05;;;0.45;;
75718;SDS011;64340;48.534;-3.036;2023-02-03T12:40:59;1.38;;;0.40;;
75718;SDS011;64340;48.534;-3.036;2023-02-03T12:46:08;0.70;;;0.30;;
75718;SDS011;64340;48.534;-3.036;2023-02-03T12:51:32;1.25;;;0.30;;
75718;SDS011;64340;48.534;-3.036;2023-02-03T12:56:52;0.50;;;0.20;;
75718;SDS011;64340;48.534;-3.036;2023-02-03T12:59:22;1.42;;;0.20;;
75718;SDS011;64340;48.534;-3.036;2023-02-03T13:01:57;1.02;;;0.30;;
75718;SDS011;64340;48.534;-3.036;2023-02-03T13:07:13;1.27;;;0.28;;
75718;SDS011;64340;48.534;-3.036;2023-02-03T13:09:58;0.98;;;0.22;;
75718;SDS011;64340;48.534;-3.036;2023-02-03T13:12:46;0.75;;;0.32;;
75718;SDS011;64340;48.534;-3.036;2023-02-03T13:20:20;0.80;;;0.30;;
75718;SDS011;64340;48.534;-3.036;2023-02-03T13:22:49;1.15;;;0.40;;
75718;SDS011;64340;48.534;-3.036;2023-02-03T13:25:16;1.10;;;0.20;;
75718;SDS011;64340;48.534;-3.036;2023-02-03T13:33:28;0.25;;;0.13;;
75718;SDS011;64340;48.534;-3.036;2023-02-03T13:42:12;0.88;;;0.32;;
75718;SDS011;64340;48.534;-3.036;2023-02-03T13:44:40;0.80;;;0.30;;
75718;SDS011;64340;48.534;-3.036;2023-02-03T13:47:15;0.47;;;0.20;;
75718;SDS011;64340;48.534;-3.036;2023-02-03T13:49:50;1.23;;;0.30;;
75718;SDS011;64340;48.534;-3.036;2023-02-03T13:52:31;0.40;;;0.25;;
75718;SDS011;64340;48.534;-3.036;2023-02-03T13:55:19;1.10;;;0.30;;
75718;SDS011;64340;48.534;-3.036;2023-02-03T13:58:03;0.57;;;0.22;;
75718;SDS011;64340;48.534;-3.036;2023-02-03T14:14:39;0.88;;;0.35;;
75718;SDS011;64340;48.534;-3.036;2023-02-03T14:16:47;0.45;;;0.20;;
75718;SDS011;64340;48.534;-3.036;2023-02-03T14:21:54;0.52;;;0.32;;
75718;SDS011;64340;48.534;-3.036;2023-02-03T14:24:21;0.80;;;0.20;;
75718;SDS011;64340;48.534;-3.036;2023-02-03T14:26:52;0.70;;;0.30;;
75718;SDS011;64340;48.534;-3.036;2023-02-03T14:29:29;0.28;;;0.10;;
75718;SDS011;64340;48.534;-3.036;2023-02-03T14:32:02;0.50;;;0.20;;
75718;SDS011;64340;48.534;-3.036;2023-02-03T14:35:06;0.52;;;0.10;;
75718;SDS011;64340;48.534;-3.036;2023-02-03T14:37:30;0.68;;;0.28;;
75718;SDS011;64340;48.534;-3.036;2023-02-03T14:59:52;2.95;;;0.40;;
75718;SDS011;64340;48.534;-3.036;2023-02-03T15:02:26;2.53;;;0.60;;
75718;SDS011;64340;48.534;-3.036;2023-02-03T15:07:47;2.45;;;0.52;;
75718;SDS011;64340;48.534;-3.036;2023-02-03T15:12:49;3.28;;;0.70;;
75718;SDS011;64340;48.534;-3.036;2023-02-03T15:15:20;2.40;;;0.60;;
75718;SDS011;64340;48.534;-3.036;2023-02-03T15:17:46;1.80;;;0.35;;
75718;SDS011;64340;48.534;-3.036;2023-02-03T15:20:26;2.35;;;0.60;;
75718;SDS011;64340;48.534;-3.036;2023-02-03T15:22:58;2.28;;;0.70;;
75718;SDS011;64340;48.534;-3.036;2023-02-03T15:25:24;7.18;;;0.88;;
75718;SDS011;64340;48.534;-3.036;2023-02-03T15:27:51;2.35;;;0.70;;
75718;SDS011;64340;48.534;-3.036;2023-02-03T15:30:20;6.97;;;1.10;;
75718;SDS011;64340;48.534;-3.036;2023-02-03T15:35:38;5.03;;;2.65;;
75718;SDS011;64340;48.534;-3.036;2023-02-03T15:38:07;17.58;;;4.93;;
75718;SDS011;64340;48.534;-3.036;2023-02-03T15:40:43;9.05;;;5.60;;
75718;SDS011;64340;48.534;-3.036;2023-02-03T15:45:46;14.13;;;11.27;;
75718;SDS011;64340;48.534;-3.036;2023-02-03T15:48:40;13.93;;;10.93;;
75718;SDS011;64340;48.534;-3.036;2023-02-03T15:51:09;10.52;;;8.93;;
75718;SDS011;64340;48.534;-3.036;2023-02-03T15:56:34;11.68;;;8.70;;
75718;SDS011;64340;48.534;-3.036;2023-02-03T15:59:03;10.88;;;9.23;;
75718;SDS011;64340;48.534;-3.036;2023-02-03T16:01:30;9.35;;;7.00;;
75718;SDS011;64340;48.534;-3.036;2023-02-03T16:03:56;8.75;;;7.32;;
